createdAt,value
2017-06-02T00:00:18.678Z,1016.33
2017-06-02T00:00:59.577Z,1016.33
2017-06-02T00:01:40.465Z,1016.33
2017-06-02T00:02:21.353Z,1016.31
2017-06-02T00:03:02.259Z,1016.31
2017-06-02T00:03:43.152Z,1016.32
2017-06-02T00:04:24.058Z,1016.3
2017-06-02T00:05:04.956Z,1016.31
2017-06-02T00:05:45.840Z,1016.33
2017-06-02T00:06:26.743Z,1016.3
2017-06-02T00:07:07.636Z,1016.31
2017-06-02T00:07:48.525Z,1016.29
2017-06-02T00:08:29.431Z,1016.3
2017-06-02T00:09:10.312Z,1016.29
2017-06-02T00:09:51.203Z,1016.31
2017-06-02T00:10:32.107Z,1016.28
2017-06-02T00:11:12.989Z,1016.3
2017-06-02T00:11:53.877Z,1016.27
2017-06-02T00:12:34.776Z,1016.27
2017-06-02T00:13:15.665Z,1016.28
2017-06-02T00:13:56.555Z,1016.27
2017-06-02T00:14:37.450Z,1016.24
2017-06-02T00:15:18.345Z,1016.27
2017-06-02T00:15:59.235Z,1016.26
2017-06-02T00:16:40.127Z,1016.24
2017-06-02T00:17:21.019Z,1016.22
2017-06-02T00:18:01.931Z,1016.24
2017-06-02T00:18:42.821Z,1016.19
2017-06-02T00:19:23.707Z,1016.21
2017-06-02T00:20:04.604Z,1016.18
2017-06-02T00:20:45.503Z,1016.21
2017-06-02T00:21:26.392Z,1016.19
2017-06-02T00:22:07.293Z,1016.14
2017-06-02T00:22:48.179Z,1016.14
2017-06-02T00:23:29.067Z,1016.1
2017-06-02T00:24:09.961Z,1016.1
2017-06-02T00:24:50.857Z,1016.11
2017-06-02T00:25:31.743Z,1016.11
2017-06-02T00:26:12.641Z,1016.11
2017-06-02T00:26:53.531Z,1016.11
2017-06-02T00:27:34.421Z,1016.06
2017-06-02T00:28:15.316Z,1016.07
2017-06-02T00:28:56.208Z,1016.04
2017-06-02T00:29:37.100Z,1016.02
2017-06-02T00:30:18.004Z,1016.05
2017-06-02T00:30:58.886Z,1016.04
2017-06-02T00:31:39.775Z,1016.01
2017-06-02T00:32:20.678Z,1016.02
2017-06-02T00:33:01.559Z,1016.01
2017-06-02T00:33:42.449Z,1016.01
2017-06-02T00:34:23.350Z,1016
2017-06-02T00:35:04.247Z,1016.01
2017-06-02T00:35:45.143Z,1015.98
2017-06-02T00:36:26.039Z,1016
2017-06-02T00:37:06.923Z,1015.99
2017-06-02T00:37:47.823Z,1016.01
2017-06-02T00:38:28.714Z,1015.96
2017-06-02T00:39:09.597Z,1016.02
2017-06-02T00:39:50.482Z,1016.02
2017-06-02T00:40:31.394Z,1016.01
2017-06-02T00:41:12.302Z,1015.99
2017-06-02T00:41:53.200Z,1015.99
2017-06-02T00:42:34.079Z,1015.99
2017-06-02T00:43:14.978Z,1016
2017-06-02T00:43:55.870Z,1016.01
2017-06-02T00:44:36.756Z,1016.03
2017-06-02T00:45:17.631Z,1016.04
2017-06-02T00:45:58.491Z,1016.03
2017-06-02T00:46:39.390Z,1016.03
2017-06-02T00:47:20.276Z,1016.05
2017-06-02T00:48:01.181Z,1016.03
2017-06-02T00:48:42.075Z,1016.04
2017-06-02T00:49:22.955Z,1015.99
2017-06-02T00:50:03.852Z,1016.03
2017-06-02T00:50:44.752Z,1016.01
2017-06-02T00:51:25.645Z,1016.01
2017-06-02T00:52:06.522Z,1016.05
2017-06-02T00:52:47.462Z,1016.01
2017-06-02T00:53:28.339Z,1016
2017-06-02T00:54:09.250Z,1016.01
2017-06-02T00:54:50.137Z,1016.01
2017-06-02T00:55:31.032Z,1016.04
2017-06-02T00:56:11.917Z,1016.01
2017-06-02T00:56:52.809Z,1016.03
2017-06-02T00:57:33.703Z,1016
2017-06-02T00:58:14.603Z,1016.01
2017-06-02T00:58:55.492Z,1016.03
2017-06-02T00:59:36.377Z,1016
2017-06-02T01:00:17.277Z,1016
2017-06-02T01:00:58.171Z,1015.98
2017-06-02T01:01:39.065Z,1015.98
2017-06-02T01:02:19.970Z,1016.01
2017-06-02T01:03:00.857Z,1016
2017-06-02T01:03:41.749Z,1015.96
2017-06-02T01:04:22.649Z,1015.98
2017-06-02T01:05:03.554Z,1015.95
2017-06-02T01:05:44.453Z,1015.97
2017-06-02T01:06:25.342Z,1015.97
2017-06-02T01:07:06.244Z,1015.99
2017-06-02T01:07:47.145Z,1015.98
2017-06-02T01:08:28.034Z,1015.95
2017-06-02T01:09:08.922Z,1015.94
2017-06-02T01:09:49.814Z,1015.95
2017-06-02T01:10:30.709Z,1015.94
2017-06-02T01:11:11.608Z,1015.94
2017-06-02T01:11:52.503Z,1015.96
2017-06-02T01:12:33.387Z,1015.93
2017-06-02T01:13:14.287Z,1015.92
2017-06-02T01:13:55.175Z,1015.95
2017-06-02T01:16:04.117Z,1015.91
2017-06-02T01:16:45.010Z,1015.91
2017-06-02T01:17:25.896Z,1015.89
2017-06-02T01:18:06.791Z,1015.9
2017-06-02T01:18:47.686Z,1015.88
2017-06-02T01:19:28.574Z,1015.89
2017-06-02T01:20:09.461Z,1015.85
2017-06-02T01:20:50.364Z,1015.87
2017-06-02T01:21:31.257Z,1015.85
2017-06-02T01:22:12.133Z,1015.82
2017-06-02T01:22:53.025Z,1015.83
2017-06-02T01:23:33.922Z,1015.82
2017-06-02T01:24:14.807Z,1015.81
2017-06-02T01:24:55.701Z,1015.81
2017-06-02T01:25:36.586Z,1015.81
2017-06-02T01:26:17.473Z,1015.82
2017-06-02T01:26:58.357Z,1015.79
2017-06-02T01:27:39.247Z,1015.81
2017-06-02T01:28:20.140Z,1015.8
2017-06-02T01:29:01.029Z,1015.82
2017-06-02T01:29:41.902Z,1015.81
2017-06-02T01:30:22.809Z,1015.81
2017-06-02T01:31:03.698Z,1015.82
2017-06-02T01:31:44.576Z,1015.79
2017-06-02T01:32:25.483Z,1015.78
2017-06-02T01:33:06.373Z,1015.82
2017-06-02T01:33:47.255Z,1015.8
2017-06-02T01:34:28.162Z,1015.82
2017-06-02T01:35:09.044Z,1015.81
2017-06-02T01:35:49.926Z,1015.82
2017-06-02T01:36:30.830Z,1015.83
2017-06-02T01:37:11.715Z,1015.83
2017-06-02T01:37:52.588Z,1015.81
2017-06-02T01:38:33.482Z,1015.8
2017-06-02T01:39:14.406Z,1015.84
2017-06-02T01:39:55.261Z,1015.83
2017-06-02T01:40:36.137Z,1015.82
2017-06-02T01:41:17.032Z,1015.79
2017-06-02T01:41:57.919Z,1015.84
2017-06-02T01:42:38.797Z,1015.85
2017-06-02T01:43:19.665Z,1015.8
2017-06-02T01:44:00.570Z,1015.84
2017-06-02T01:44:41.456Z,1015.83
2017-06-02T01:45:22.347Z,1015.82
2017-06-02T01:46:03.244Z,1015.82
2017-06-02T01:46:44.134Z,1015.83
2017-06-02T01:47:25.025Z,1015.87
2017-06-02T01:48:05.929Z,1015.83
2017-06-02T01:48:46.814Z,1015.79
2017-06-02T01:49:27.700Z,1015.82
2017-06-02T01:50:08.608Z,1015.83
2017-06-02T01:50:49.486Z,1015.83
2017-06-02T01:51:30.382Z,1015.81
2017-06-02T01:52:11.230Z,1015.82
2017-06-02T01:52:52.143Z,1015.84
2017-06-02T01:53:33.020Z,1015.8
2017-06-02T01:54:13.898Z,1015.8
2017-06-02T01:54:54.768Z,1015.82
2017-06-02T01:55:35.667Z,1015.83
2017-06-02T01:56:16.557Z,1015.81
2017-06-02T01:56:57.429Z,1015.81
2017-06-02T01:57:38.300Z,1015.81
2017-06-02T01:58:19.199Z,1015.79
2017-06-02T01:59:00.086Z,1015.77
2017-06-02T01:59:40.972Z,1015.76
2017-06-02T02:00:21.885Z,1015.79
2017-06-02T02:02:30.884Z,1015.74
2017-06-02T02:03:11.772Z,1015.75
2017-06-02T02:03:52.652Z,1015.75
2017-06-02T02:04:33.541Z,1015.73
2017-06-02T02:05:14.461Z,1015.71
2017-06-02T02:05:55.335Z,1015.7
2017-06-02T02:06:36.214Z,1015.7
2017-06-02T02:07:17.108Z,1015.72
2017-06-02T02:07:57.994Z,1015.7
2017-06-02T02:08:38.883Z,1015.71
2017-06-02T02:09:19.774Z,1015.69
2017-06-02T02:10:00.678Z,1015.69
2017-06-02T02:10:41.548Z,1015.7
2017-06-02T02:11:22.437Z,1015.67
2017-06-02T02:12:03.337Z,1015.65
2017-06-02T02:12:44.206Z,1015.65
2017-06-02T02:13:25.102Z,1015.64
2017-06-02T02:14:06.000Z,1015.65
2017-06-02T02:14:46.908Z,1015.63
2017-06-02T02:15:27.822Z,1015.62
2017-06-02T02:16:08.704Z,1015.62
2017-06-02T02:16:49.573Z,1015.64
2017-06-02T02:17:30.455Z,1015.63
2017-06-02T02:18:11.350Z,1015.66
2017-06-02T02:18:52.235Z,1015.62
2017-06-02T02:19:33.112Z,1015.62
2017-06-02T02:20:13.991Z,1015.63
2017-06-02T02:20:54.875Z,1015.62
2017-06-02T02:21:35.749Z,1015.66
2017-06-02T02:22:16.625Z,1015.63
2017-06-02T02:22:57.488Z,1015.64
2017-06-02T02:23:38.374Z,1015.67
2017-06-02T02:24:19.303Z,1015.66
2017-06-02T02:25:00.160Z,1015.64
2017-06-02T02:25:41.042Z,1015.69
2017-06-02T02:26:21.940Z,1015.66
2017-06-02T02:27:02.833Z,1015.67
2017-06-02T02:27:43.727Z,1015.66
2017-06-02T02:28:24.626Z,1015.68
2017-06-02T02:29:05.507Z,1015.64
2017-06-02T02:29:46.399Z,1015.61
2017-06-02T02:30:27.297Z,1015.63
2017-06-02T02:31:08.193Z,1015.62
2017-06-02T02:31:49.062Z,1015.63
2017-06-02T02:32:29.958Z,1015.63
2017-06-02T02:33:10.852Z,1015.67
2017-06-02T02:33:51.725Z,1015.63
2017-06-02T02:34:32.616Z,1015.62
2017-06-02T02:35:13.504Z,1015.67
2017-06-02T02:35:54.397Z,1015.6
2017-06-02T02:36:35.283Z,1015.64
2017-06-02T02:37:16.193Z,1015.63
2017-06-02T02:37:57.072Z,1015.58
2017-06-02T02:38:37.965Z,1015.6
2017-06-02T02:39:18.844Z,1015.6
2017-06-02T02:39:59.735Z,1015.59
2017-06-02T02:40:40.632Z,1015.6
2017-06-02T02:41:21.507Z,1015.63
2017-06-02T02:42:02.394Z,1015.61
2017-06-02T02:42:43.292Z,1015.62
2017-06-02T02:43:24.165Z,1015.64
2017-06-02T02:44:05.059Z,1015.58
2017-06-02T02:44:45.980Z,1015.62
2017-06-02T02:45:26.840Z,1015.62
2017-06-02T02:46:07.741Z,1015.59
2017-06-02T02:46:48.639Z,1015.6
2017-06-02T02:47:29.521Z,1015.6
2017-06-02T02:48:10.423Z,1015.61
2017-06-02T02:48:51.332Z,1015.56
2017-06-02T02:49:32.193Z,1015.59
2017-06-02T02:50:13.082Z,1015.58
2017-06-02T02:50:53.985Z,1015.56
2017-06-02T02:51:34.855Z,1015.57
2017-06-02T02:52:15.746Z,1015.55
2017-06-02T02:52:56.638Z,1015.54
2017-06-02T02:53:37.522Z,1015.53
2017-06-02T02:54:18.416Z,1015.54
2017-06-02T02:54:59.328Z,1015.53
2017-06-02T02:55:40.201Z,1015.52
2017-06-02T02:56:21.092Z,1015.53
2017-06-02T02:57:01.984Z,1015.55
2017-06-02T02:57:42.877Z,1015.5
2017-06-02T02:58:23.757Z,1015.49
2017-06-02T02:59:04.647Z,1015.51
2017-06-02T02:59:45.543Z,1015.49
2017-06-02T03:00:26.410Z,1015.5
2017-06-02T03:01:07.303Z,1015.5
2017-06-02T03:01:48.193Z,1015.48
2017-06-02T03:02:29.081Z,1015.49
2017-06-02T03:03:09.973Z,1015.51
2017-06-02T03:03:50.871Z,1015.48
2017-06-02T03:04:31.761Z,1015.5
2017-06-02T03:05:12.658Z,1015.52
2017-06-02T03:05:53.558Z,1015.53
2017-06-02T03:06:34.437Z,1015.51
2017-06-02T03:07:15.317Z,1015.54
2017-06-02T03:07:56.216Z,1015.54
2017-06-02T03:08:37.097Z,1015.54
2017-06-02T03:09:17.978Z,1015.56
2017-06-02T03:09:58.879Z,1015.54
2017-06-02T03:10:39.766Z,1015.52
2017-06-02T03:11:20.648Z,1015.53
2017-06-02T03:12:01.549Z,1015.52
2017-06-02T03:12:42.431Z,1015.52
2017-06-02T03:13:23.318Z,1015.52
2017-06-02T03:14:04.220Z,1015.51
2017-06-02T03:14:45.107Z,1015.52
2017-06-02T03:15:26.000Z,1015.51
2017-06-02T03:16:06.869Z,1015.53
2017-06-02T03:16:47.756Z,1015.52
2017-06-02T03:17:28.643Z,1015.49
2017-06-02T03:18:09.536Z,1015.52
2017-06-02T03:18:50.430Z,1015.51
2017-06-02T03:19:31.318Z,1015.54
2017-06-02T03:20:12.210Z,1015.57
2017-06-02T03:20:53.111Z,1015.56
2017-06-02T03:21:33.986Z,1015.57
2017-06-02T03:22:14.865Z,1015.53
2017-06-02T03:22:55.748Z,1015.57
2017-06-02T03:23:36.643Z,1015.53
2017-06-02T03:24:17.519Z,1015.52
2017-06-02T03:24:58.417Z,1015.5
2017-06-02T03:25:39.325Z,1015.46
2017-06-02T03:26:20.213Z,1015.47
2017-06-02T03:27:01.095Z,1015.46
2017-06-02T03:27:42.004Z,1015.48
2017-06-02T03:28:22.903Z,1015.47
2017-06-02T03:29:03.791Z,1015.48
2017-06-02T03:31:02.563Z,1015.47
2017-06-02T03:31:43.433Z,1015.49
2017-06-02T03:32:24.321Z,1015.44
2017-06-02T03:33:05.209Z,1015.43
2017-06-02T03:33:46.104Z,1015.45
2017-06-02T03:34:26.995Z,1015.48
2017-06-02T03:35:07.874Z,1015.45
2017-06-02T03:35:48.765Z,1015.47
2017-06-02T03:36:29.639Z,1015.5
2017-06-02T03:37:10.537Z,1015.53
2017-06-02T03:37:51.422Z,1015.49
2017-06-02T03:38:32.315Z,1015.49
2017-06-02T03:39:13.190Z,1015.49
2017-06-02T03:39:54.095Z,1015.53
2017-06-02T03:40:34.967Z,1015.5
2017-06-02T03:41:15.842Z,1015.52
2017-06-02T03:41:56.738Z,1015.51
2017-06-02T03:42:37.637Z,1015.5
2017-06-02T03:43:18.516Z,1015.53
2017-06-02T03:43:59.408Z,1015.55
2017-06-02T03:44:40.302Z,1015.52
2017-06-02T03:45:21.182Z,1015.53
2017-06-02T03:46:02.057Z,1015.53
2017-06-02T03:46:42.938Z,1015.53
2017-06-02T03:47:23.825Z,1015.55
2017-06-02T03:48:04.717Z,1015.54
2017-06-02T03:48:45.591Z,1015.53
2017-06-02T03:49:26.491Z,1015.54
2017-06-02T03:50:07.378Z,1015.57
2017-06-02T03:50:48.264Z,1015.54
2017-06-02T03:51:29.184Z,1015.58
2017-06-02T03:52:10.070Z,1015.53
2017-06-02T03:52:50.963Z,1015.52
2017-06-02T03:53:31.851Z,1015.54
2017-06-02T03:54:12.735Z,1015.56
2017-06-02T03:54:53.632Z,1015.57
2017-06-02T03:55:34.515Z,1015.61
2017-06-02T03:56:15.395Z,1015.61
2017-06-02T03:56:56.283Z,1015.6
2017-06-02T03:57:37.186Z,1015.65
2017-06-02T03:58:18.070Z,1015.63
2017-06-02T03:58:58.954Z,1015.63
2017-06-02T03:59:39.841Z,1015.61
2017-06-02T04:00:20.733Z,1015.61
2017-06-02T04:01:01.652Z,1015.59
2017-06-02T04:01:42.546Z,1015.64
2017-06-02T04:02:23.444Z,1015.61
2017-06-02T04:03:04.333Z,1015.63
2017-06-02T04:03:45.238Z,1015.61
2017-06-02T04:04:26.135Z,1015.62
2017-06-02T04:05:07.045Z,1015.6
2017-06-02T04:05:47.936Z,1015.59
2017-06-02T04:06:28.828Z,1015.61
2017-06-02T04:07:09.720Z,1015.63
2017-06-02T04:07:50.629Z,1015.62
2017-06-02T04:08:31.496Z,1015.6
2017-06-02T04:09:12.392Z,1015.62
2017-06-02T04:09:53.290Z,1015.63
2017-06-02T04:10:34.169Z,1015.63
2017-06-02T04:11:15.049Z,1015.63
2017-06-02T04:11:55.940Z,1015.62
2017-06-02T04:12:36.830Z,1015.61
2017-06-02T04:13:17.719Z,1015.59
2017-06-02T04:13:58.619Z,1015.61
2017-06-02T04:14:39.502Z,1015.62
2017-06-02T04:15:20.369Z,1015.59
2017-06-02T04:16:01.261Z,1015.56
2017-06-02T04:16:42.152Z,1015.65
2017-06-02T04:17:23.064Z,1015.59
2017-06-02T04:18:03.951Z,1015.59
2017-06-02T04:18:44.828Z,1015.64
2017-06-02T04:19:25.716Z,1015.64
2017-06-02T04:20:06.613Z,1015.57
2017-06-02T04:20:47.514Z,1015.6
2017-06-02T04:21:28.403Z,1015.61
2017-06-02T04:22:09.285Z,1015.64
2017-06-02T04:22:50.182Z,1015.62
2017-06-02T04:23:31.123Z,1015.65
2017-06-02T04:24:12.007Z,1015.63
2017-06-02T04:24:52.885Z,1015.61
2017-06-02T04:25:33.783Z,1015.6
2017-06-02T04:26:14.672Z,1015.61
2017-06-02T04:26:55.555Z,1015.63
2017-06-02T04:27:36.428Z,1015.62
2017-06-02T04:28:17.319Z,1015.57
2017-06-02T04:28:58.207Z,1015.57
2017-06-02T04:29:39.101Z,1015.58
2017-06-02T04:30:19.960Z,1015.6
2017-06-02T04:31:00.849Z,1015.58
2017-06-02T04:31:41.741Z,1015.57
2017-06-02T04:32:22.636Z,1015.63
2017-06-02T04:33:03.514Z,1015.62
2017-06-02T04:33:44.420Z,1015.58
2017-06-02T04:34:25.309Z,1015.57
2017-06-02T04:35:06.199Z,1015.61
2017-06-02T04:35:47.079Z,1015.57
2017-06-02T04:36:27.959Z,1015.61
2017-06-02T04:37:08.843Z,1015.59
2017-06-02T04:37:49.742Z,1015.63
2017-06-02T04:38:30.631Z,1015.64
2017-06-02T04:39:11.520Z,1015.64
2017-06-02T04:39:52.424Z,1015.65
2017-06-02T04:40:33.313Z,1015.63
2017-06-02T04:41:14.194Z,1015.68
2017-06-02T04:41:55.101Z,1015.68
2017-06-02T04:42:36.022Z,1015.64
2017-06-02T04:43:16.914Z,1015.66
2017-06-02T04:43:57.804Z,1015.68
2017-06-02T04:44:38.690Z,1015.68
2017-06-02T04:45:19.588Z,1015.69
2017-06-02T04:46:00.476Z,1015.67
2017-06-02T04:46:41.362Z,1015.7
2017-06-02T04:47:22.255Z,1015.7
2017-06-02T04:48:03.143Z,1015.74
2017-06-02T04:48:44.068Z,1015.69
2017-06-02T04:49:24.901Z,1015.76
2017-06-02T04:50:05.798Z,1015.71
2017-06-02T04:50:46.699Z,1015.74
2017-06-02T04:51:27.615Z,1015.76
2017-06-02T04:52:08.513Z,1015.75
2017-06-02T04:52:49.401Z,1015.74
2017-06-02T04:53:30.277Z,1015.77
2017-06-02T04:54:11.169Z,1015.77
2017-06-02T04:54:52.061Z,1015.78
2017-06-02T04:55:32.957Z,1015.78
2017-06-02T04:56:13.869Z,1015.77
2017-06-02T04:56:54.737Z,1015.78
2017-06-02T04:57:35.630Z,1015.84
2017-06-02T04:58:16.545Z,1015.76
2017-06-02T04:58:57.422Z,1015.8
2017-06-02T04:59:38.303Z,1015.81
2017-06-02T05:00:19.188Z,1015.78
2017-06-02T05:01:00.070Z,1015.8
2017-06-02T05:01:40.968Z,1015.8
2017-06-02T05:02:21.864Z,1015.8
2017-06-02T05:03:02.754Z,1015.81
2017-06-02T05:03:43.641Z,1015.82
2017-06-02T05:04:24.524Z,1015.75
2017-06-02T05:05:05.449Z,1015.76
2017-06-02T05:05:46.363Z,1015.77
2017-06-02T05:06:27.253Z,1015.77
2017-06-02T05:07:08.158Z,1015.78
2017-06-02T05:07:49.052Z,1015.81
2017-06-02T05:08:29.946Z,1015.81
2017-06-02T05:09:10.839Z,1015.82
2017-06-02T05:09:51.724Z,1015.81
2017-06-02T05:10:32.618Z,1015.83
2017-06-02T05:11:13.498Z,1015.8
2017-06-02T05:11:54.391Z,1015.8
2017-06-02T05:12:35.276Z,1015.81
2017-06-02T05:13:16.196Z,1015.8
2017-06-02T05:13:57.118Z,1015.78
2017-06-02T05:14:37.990Z,1015.8
2017-06-02T05:15:18.864Z,1015.78
2017-06-02T05:15:59.752Z,1015.78
2017-06-02T05:16:40.640Z,1015.78
2017-06-02T05:17:21.529Z,1015.77
2017-06-02T05:18:02.429Z,1015.78
2017-06-02T05:18:43.328Z,1015.76
2017-06-02T05:19:24.222Z,1015.82
2017-06-02T05:20:05.106Z,1015.76
2017-06-02T05:20:46.003Z,1015.72
2017-06-02T05:21:26.893Z,1015.73
2017-06-02T05:22:07.786Z,1015.74
2017-06-02T05:22:48.676Z,1015.73
2017-06-02T05:23:29.573Z,1015.7
2017-06-02T05:24:10.469Z,1015.69
2017-06-02T05:24:51.352Z,1015.67
2017-06-02T05:25:32.237Z,1015.69
2017-06-02T05:26:13.134Z,1015.7
2017-06-02T05:26:54.036Z,1015.7
2017-06-02T05:27:34.929Z,1015.72
2017-06-02T05:28:15.804Z,1015.73
2017-06-02T05:28:56.706Z,1015.73
2017-06-02T05:29:37.588Z,1015.71
2017-06-02T05:30:18.489Z,1015.71
2017-06-02T05:30:59.389Z,1015.73
2017-06-02T05:31:40.271Z,1015.72
2017-06-02T05:32:21.170Z,1015.72
2017-06-02T05:33:02.056Z,1015.72
2017-06-02T05:33:42.945Z,1015.68
2017-06-02T05:34:23.835Z,1015.7
2017-06-02T05:35:04.738Z,1015.68
2017-06-02T05:35:45.633Z,1015.68
2017-06-02T05:36:26.526Z,1015.69
2017-06-02T05:37:07.418Z,1015.72
2017-06-02T05:37:48.311Z,1015.72
2017-06-02T05:38:29.203Z,1015.71
2017-06-02T05:39:10.091Z,1015.71
2017-06-02T05:39:50.987Z,1015.68
2017-06-02T05:40:31.868Z,1015.7
2017-06-02T05:41:12.767Z,1015.69
2017-06-02T05:41:53.673Z,1015.71
2017-06-02T05:42:34.570Z,1015.69
2017-06-02T05:43:15.468Z,1015.72
2017-06-02T05:43:56.367Z,1015.69
2017-06-02T05:44:37.303Z,1015.68
2017-06-02T05:45:18.166Z,1015.66
2017-06-02T05:45:59.074Z,1015.67
2017-06-02T05:46:39.963Z,1015.68
2017-06-02T05:47:20.859Z,1015.69
2017-06-02T05:48:01.741Z,1015.69
2017-06-02T05:48:42.616Z,1015.7
2017-06-02T05:49:23.514Z,1015.71
2017-06-02T05:50:04.396Z,1015.7
2017-06-02T05:50:45.291Z,1015.71
2017-06-02T05:51:26.187Z,1015.65
2017-06-02T05:52:07.069Z,1015.66
2017-06-02T05:52:47.962Z,1015.66
2017-06-02T05:53:28.853Z,1015.68
2017-06-02T05:54:09.742Z,1015.7
2017-06-02T05:54:50.638Z,1015.65
2017-06-02T05:55:31.522Z,1015.67
2017-06-02T05:56:12.413Z,1015.69
2017-06-02T05:56:53.301Z,1015.64
2017-06-02T05:57:34.189Z,1015.68
2017-06-02T05:58:15.094Z,1015.67
2017-06-02T05:58:55.960Z,1015.68
2017-06-02T05:59:36.900Z,1015.68
2017-06-02T06:00:17.807Z,1015.67
2017-06-02T06:00:58.696Z,1015.68
2017-06-02T06:01:39.587Z,1015.68
2017-06-02T06:02:20.484Z,1015.69
2017-06-02T06:03:01.376Z,1015.68
2017-06-02T06:03:42.269Z,1015.66
2017-06-02T06:04:23.159Z,1015.7
2017-06-02T06:05:04.045Z,1015.71
2017-06-02T06:05:44.941Z,1015.68
2017-06-02T06:06:25.816Z,1015.69
2017-06-02T06:07:06.695Z,1015.74
2017-06-02T06:07:47.599Z,1015.72
2017-06-02T06:08:28.498Z,1015.74
2017-06-02T06:09:09.424Z,1015.77
2017-06-02T06:09:50.327Z,1015.71
2017-06-02T06:10:31.212Z,1015.71
2017-06-02T06:11:12.098Z,1015.74
2017-06-02T06:11:53.025Z,1015.71
2017-06-02T06:12:33.983Z,1015.68
2017-06-02T06:14:07.235Z,1015.7
2017-06-02T06:14:48.112Z,1015.7
2017-06-02T06:15:28.997Z,1015.68
2017-06-02T06:16:09.877Z,1015.76
2017-06-02T06:17:48.282Z,1015.71
2017-06-02T06:18:29.195Z,1015.73
2017-06-02T06:19:10.121Z,1015.74
2017-06-02T06:19:50.981Z,1015.69
2017-06-02T06:20:31.882Z,1015.73
2017-06-02T06:21:12.780Z,1015.69
2017-06-02T06:21:53.693Z,1015.7
2017-06-02T06:22:34.622Z,1015.73
2017-06-02T06:23:15.526Z,1015.74
2017-06-02T06:23:56.415Z,1015.76
2017-06-02T06:24:37.324Z,1015.75
2017-06-02T06:25:18.221Z,1015.72
2017-06-02T06:25:59.119Z,1015.72
2017-06-02T06:26:40.017Z,1015.69
2017-06-02T06:27:20.909Z,1015.69
2017-06-02T06:28:01.804Z,1015.73
2017-06-02T06:28:42.700Z,1015.73
2017-06-02T06:29:23.882Z,1015.7
2017-06-02T06:30:04.770Z,1015.7
2017-06-02T06:30:45.680Z,1015.7
2017-06-02T06:31:26.575Z,1015.72
2017-06-02T06:32:07.475Z,1015.71
2017-06-02T06:32:48.375Z,1015.72
2017-06-02T06:33:29.287Z,1015.71
2017-06-02T06:34:10.185Z,1015.68
2017-06-02T06:34:51.090Z,1015.69
2017-06-02T06:35:31.993Z,1015.69
2017-06-02T06:36:12.904Z,1015.66
2017-06-02T06:36:53.812Z,1015.66
2017-06-02T06:37:34.715Z,1015.64
2017-06-02T06:38:15.619Z,1015.69
2017-06-02T06:38:56.526Z,1015.7
2017-06-02T06:39:37.436Z,1015.65
2017-06-02T06:40:18.337Z,1015.66
2017-06-02T06:40:59.270Z,1015.66
2017-06-02T06:41:40.178Z,1015.71
2017-06-02T06:42:21.080Z,1015.71
2017-06-02T06:44:15.711Z,1015.71
2017-06-02T06:44:56.611Z,1015.68
2017-06-02T06:45:37.515Z,1015.67
2017-06-02T06:46:18.432Z,1015.7
2017-06-02T06:46:59.354Z,1015.68
2017-06-02T06:47:40.260Z,1015.7
2017-06-02T06:48:21.165Z,1015.69
2017-06-02T06:49:02.076Z,1015.66
2017-06-02T06:49:42.992Z,1015.68
2017-06-02T06:50:23.897Z,1015.65
2017-06-02T06:51:04.807Z,1015.66
2017-06-02T06:51:45.719Z,1015.65
2017-06-02T06:52:26.624Z,1015.65
2017-06-02T06:53:07.528Z,1015.67
2017-06-02T06:53:48.422Z,1015.68
2017-06-02T06:54:29.332Z,1015.74
2017-06-02T06:55:10.232Z,1015.72
2017-06-02T06:55:51.140Z,1015.77
2017-06-02T06:56:32.045Z,1015.77
2017-06-02T06:57:12.968Z,1015.71
2017-06-02T06:57:53.863Z,1015.71
2017-06-02T06:58:34.789Z,1015.75
2017-06-02T06:59:15.687Z,1015.7
2017-06-02T06:59:56.628Z,1015.7
2017-06-02T07:00:37.534Z,1015.68
2017-06-02T07:01:18.444Z,1015.66
2017-06-02T07:01:59.342Z,1015.64
2017-06-02T07:02:40.235Z,1015.7
2017-06-02T07:03:21.142Z,1015.63
2017-06-02T07:04:02.056Z,1015.64
2017-06-02T07:04:42.963Z,1015.64
2017-06-02T07:05:23.877Z,1015.7
2017-06-02T07:06:04.781Z,1015.69
2017-06-02T07:06:45.693Z,1015.69
2017-06-02T07:07:26.596Z,1015.7
2017-06-02T07:08:07.504Z,1015.67
2017-06-02T07:08:48.411Z,1015.73
2017-06-02T07:09:29.337Z,1015.68
2017-06-02T07:10:10.233Z,1015.68
2017-06-02T07:10:51.154Z,1015.68
2017-06-02T07:11:32.034Z,1015.68
2017-06-02T07:12:12.935Z,1015.67
2017-06-02T07:12:53.844Z,1015.69
2017-06-02T07:13:34.735Z,1015.66
2017-06-02T07:14:15.649Z,1015.68
2017-06-02T07:14:56.541Z,1015.68
2017-06-02T07:15:37.446Z,1015.71
2017-06-02T07:16:18.347Z,1015.68
2017-06-02T07:16:59.289Z,1015.68
2017-06-02T07:17:40.179Z,1015.69
2017-06-02T07:18:21.092Z,1015.68
2017-06-02T07:19:01.995Z,1015.65
2017-06-02T07:19:42.886Z,1015.65
2017-06-02T07:20:23.815Z,1015.65
2017-06-02T07:21:04.713Z,1015.62
2017-06-02T07:21:45.632Z,1015.63
2017-06-02T07:22:26.517Z,1015.65
2017-06-02T07:23:07.431Z,1015.66
2017-06-02T07:23:48.326Z,1015.65
2017-06-02T07:24:29.248Z,1015.65
2017-06-02T07:25:10.151Z,1015.66
2017-06-02T07:25:51.059Z,1015.65
2017-06-02T07:26:31.942Z,1015.68
2017-06-02T07:27:12.855Z,1015.65
2017-06-02T07:27:53.762Z,1015.64
2017-06-02T07:28:34.672Z,1015.67
2017-06-02T07:29:15.583Z,1015.64
2017-06-02T07:29:56.489Z,1015.63
2017-06-02T07:30:37.396Z,1015.65
2017-06-02T07:31:18.296Z,1015.6
2017-06-02T07:31:59.216Z,1015.6
2017-06-02T07:32:40.144Z,1015.6
2017-06-02T07:33:21.039Z,1015.58
2017-06-02T07:34:01.958Z,1015.62
2017-06-02T07:34:42.860Z,1015.61
2017-06-02T07:35:23.765Z,1015.6
2017-06-02T07:36:04.691Z,1015.57
2017-06-02T07:36:45.606Z,1015.59
2017-06-02T07:37:26.540Z,1015.55
2017-06-02T07:38:07.448Z,1015.64
2017-06-02T07:38:48.357Z,1015.59
2017-06-02T07:39:29.299Z,1015.57
2017-06-02T07:40:10.222Z,1015.58
2017-06-02T07:40:51.111Z,1015.59
2017-06-02T07:41:32.017Z,1015.6
2017-06-02T07:42:12.931Z,1015.6
2017-06-02T07:42:53.834Z,1015.58
2017-06-02T07:43:34.746Z,1015.6
2017-06-02T07:44:15.661Z,1015.64
2017-06-02T07:44:56.570Z,1015.63
2017-06-02T07:45:37.475Z,1015.64
2017-06-02T07:46:18.380Z,1015.58
2017-06-02T07:46:59.291Z,1015.6
2017-06-02T07:47:40.197Z,1015.59
2017-06-02T07:48:21.109Z,1015.58
2017-06-02T07:49:02.000Z,1015.56
2017-06-02T07:49:42.898Z,1015.59
2017-06-02T07:50:23.809Z,1015.53
2017-06-02T07:51:04.724Z,1015.48
2017-06-02T07:51:45.651Z,1015.48
2017-06-02T07:52:26.567Z,1015.46
2017-06-02T07:53:07.475Z,1015.46
2017-06-02T07:53:48.382Z,1015.48
2017-06-02T07:54:29.281Z,1015.48
2017-06-02T07:55:10.199Z,1015.5
2017-06-02T07:55:51.105Z,1015.52
2017-06-02T07:56:32.022Z,1015.49
2017-06-02T07:57:12.943Z,1015.51
2017-06-02T07:57:53.862Z,1015.51
2017-06-02T07:58:34.771Z,1015.52
2017-06-02T07:59:15.681Z,1015.5
2017-06-02T07:59:56.598Z,1015.53
2017-06-02T08:00:37.501Z,1015.51
2017-06-02T08:01:18.415Z,1015.52
2017-06-02T08:01:59.322Z,1015.48
2017-06-02T08:02:40.241Z,1015.49
2017-06-02T08:03:21.149Z,1015.47
2017-06-02T08:04:02.067Z,1015.46
2017-06-02T08:04:42.977Z,1015.53
2017-06-02T08:05:23.881Z,1015.5
2017-06-02T08:06:04.796Z,1015.47
2017-06-02T08:06:45.704Z,1015.45
2017-06-02T08:07:26.598Z,1015.44
2017-06-02T08:08:07.515Z,1015.42
2017-06-02T08:08:48.429Z,1015.43
2017-06-02T08:09:29.339Z,1015.37
2017-06-02T08:10:10.241Z,1015.42
2017-06-02T08:10:51.160Z,1015.44
2017-06-02T08:11:32.096Z,1015.4
2017-06-02T08:12:12.984Z,1015.37
2017-06-02T08:12:53.899Z,1015.39
2017-06-02T08:13:34.828Z,1015.37
2017-06-02T08:14:15.753Z,1015.37
2017-06-02T08:14:56.673Z,1015.39
2017-06-02T08:15:37.585Z,1015.4
2017-06-02T08:16:18.498Z,1015.41
2017-06-02T08:16:59.413Z,1015.43
2017-06-02T08:17:40.328Z,1015.43
2017-06-02T08:18:21.248Z,1015.4
2017-06-02T08:19:02.164Z,1015.42
2017-06-02T08:19:43.068Z,1015.39
2017-06-02T08:20:23.984Z,1015.4
2017-06-02T08:21:04.876Z,1015.4
2017-06-02T08:21:45.817Z,1015.39
2017-06-02T08:22:26.709Z,1015.44
2017-06-02T08:23:07.627Z,1015.41
2017-06-02T08:23:48.527Z,1015.39
2017-06-02T08:24:29.439Z,1015.4